Time;durP1;ratioP1;P1;durP2;ratioP2;P2;SDS_P1;SDS_P2;PMS_P1;PMS_P2;Temp;Humidity;BMP_temperature;BMP_pressure;BME280_temperature;BME280_humidity;BME280_pressure;Samples;Min_cycle;Max_cycle;Signal;HPM_P1;HPM_P2
2022/07/21 00:01:51;;;;;;;28.23;20.98;;;19.30;2.00;;;;;;5037914;28;20029;-77
2022/07/21 00:04:17;;;;;;;29.85;18.38;;;19.30;15.10;;;;;;5041069;28;20024;-77
2022/07/21 00:06:44;;;;;;;29.42;20.40;;;19.30;1.00;;;;;;5045948;28;20104;-76
2022/07/21 00:09:11;;;;;;;28.45;19.77;;;19.40;10.20;;;;;;5039973;28;20018;-77
2022/07/21 00:11:37;;;;;;;30.00;21.60;;;19.40;27.10;;;;;;5047532;28;20048;-76
2022/07/21 00:14:04;;;;;;;30.38;20.85;;;19.50;1.80;;;;;;5041961;28;20430;-76
2022/07/21 00:16:29;;;;;;;30.50;20.00;;;19.60;19.70;;;;;;5048496;28;20049;-77
2022/07/21 00:18:55;;;;;;;28.27;20.13;;;19.50;2.70;;;;;;5037522;28;20045;-76
2022/07/21 00:21:21;;;;;;;32.42;20.88;;;19.60;18.10;;;;;;5048063;28;20561;-77
2022/07/21 00:23:46;;;;;;;30.65;20.75;;;19.60;19.60;;;;;;5049429;28;20017;-76
2022/07/21 00:26:12;;;;;;;28.92;19.83;;;19.70;28.60;;;;;;5055654;28;20424;-76
2022/07/21 00:28:38;;;;;;;28.75;20.77;;;19.70;39.70;;;;;;5044161;28;20025;-76
2022/07/21 00:31:04;;;;;;;29.55;20.90;;;19.70;45.90;;;;;;5039336;28;20545;-76
2022/07/21 00:33:29;;;;;;;30.58;20.75;;;19.70;35.80;;;;;;5055898;28;20049;-76
2022/07/21 00:35:55;;;;;;;38.72;21.65;;;19.70;22.60;;;;;;5047734;28;20045;-76
2022/07/21 00:38:20;;;;;;;33.17;21.40;;;19.90;57.20;;;;;;5048865;28;20032;-76
2022/07/21 00:40:46;;;;;;;30.05;20.42;;;19.80;57.30;;;;;;5050025;28;20030;-76
2022/07/21 00:43:11;;;;;;;32.20;21.52;;;19.80;56.10;;;;;;5046752;28;20507;-76
2022/07/21 00:45:37;;;;;;;31.00;20.73;;;19.70;81.80;;;;;;5041175;28;20079;-76
2022/07/21 00:48:03;;;;;;;28.63;19.65;;;19.80;86.50;;;;;;5046057;28;20377;-77
2022/07/21 00:50:31;;;;;;;33.03;20.67;;;19.70;87.50;;;;;;5036561;28;20021;-77
2022/07/21 00:52:57;;;;;;;31.85;20.67;;;19.60;77.40;;;;;;5047662;28;20022;-77
2022/07/21 00:55:22;;;;;;;31.50;21.27;;;19.70;99.90;;;;;;5048642;28;20070;-77
2022/07/21 00:57:49;;;;;;;28.73;19.10;;;19.60;99.90;;;;;;5035399;28;20043;-76
2022/07/21 01:00:18;;;;;;;27.10;18.10;;;19.60;98.40;;;;;;5046727;28;20070;-77
2022/07/21 01:02:44;;;;;;;26.38;18.90;;;19.60;94.00;;;;;;5040820;28;20029;-77
2022/07/21 01:05:14;;;;;;;24.05;16.95;;;19.60;95.90;;;;;;5044837;28;20037;-77
2022/07/21 01:07:43;;;;;;;;;;;19.60;92.60;;;;;;5049667;28;20171;-77
2022/07/21 01:10:12;;;;;;;26.58;16.08;;;19.50;97.20;;;;;;5048346;28;19911;-77
2022/07/21 01:12:39;;;;;;;23.15;17.02;;;19.60;93.90;;;;;;5054789;28;20037;-77
2022/07/21 01:15:06;;;;;;;23.75;15.68;;;19.60;97.10;;;;;;5042859;28;20028;-77
2022/07/21 01:17:32;;;;;;;26.05;18.17;;;19.60;97.80;;;;;;5052968;28;20383;-78
2022/07/21 01:20:10;;;;;;;24.02;16.98;;;19.60;98.50;;;;;;5044464;28;20473;-78
2022/07/21 01:22:39;;;;;;;26.33;17.30;;;19.40;99.90;;;;;;5052680;28;20033;-78
2022/07/21 01:25:05;;;;;;;24.02;16.58;;;19.30;99.90;;;;;;5044243;28;20037;-78
2022/07/21 01:27:31;;;;;;;26.45;17.08;;;19.30;99.90;;;;;;5050225;28;20026;-78
2022/07/21 01:29:57;;;;;;;23.27;17.58;;;19.30;99.90;;;;;;5054552;28;20641;-78
2022/07/21 01:32:23;;;;;;;24.25;16.95;;;19.30;99.90;;;;;;5054006;28;20029;-78
2022/07/21 01:34:50;;;;;;;25.20;17.60;;;19.30;99.90;;;;;;5039566;28;20025;-78
2022/07/21 01:37:23;;;;;;;24.75;17.83;;;19.20;99.90;;;;;;5054525;28;20158;-78
2022/07/21 01:42:36;;;;;;;25.40;18.27;;;19.30;99.90;;;;;;5040220;28;20124;-78
2022/07/21 01:45:03;;;;;;;24.95;19.50;;;19.30;99.90;;;;;;5047858;28;20100;-78
2022/07/21 01:47:28;;;;;;;25.85;19.20;;;19.30;99.90;;;;;;5046836;28;20017;-78
2022/07/21 01:49:54;;;;;;;31.15;20.70;;;19.40;99.90;;;;;;5035601;28;20052;-78
2022/07/21 01:52:20;;;;;;;30.58;21.80;;;19.30;99.90;;;;;;5044746;28;20056;-78
2022/07/21 01:54:45;;;;;;;29.48;20.83;;;19.30;99.90;;;;;;5040173;28;20039;-78
2022/07/21 01:57:11;;;;;;;32.97;23.80;;;19.40;99.90;;;;;;5045410;28;20108;-78
2022/07/21 01:59:36;;;;;;;35.83;23.48;;;19.50;99.90;;;;;;5048186;28;20060;-78
2022/07/21 02:02:02;;;;;;;34.25;24.60;;;19.50;99.90;;;;;;5040512;28;20096;-78
2022/07/21 02:04:28;;;;;;;35.33;23.02;;;19.50;99.90;;;;;;5041549;28;20021;-78
2022/07/21 02:06:54;;;;;;;35.67;23.63;;;19.40;98.20;;;;;;5048166;28;20019;-78
2022/07/21 02:09:20;;;;;;;32.97;23.77;;;19.50;99.90;;;;;;5037816;28;20021;-78
2022/07/21 02:11:45;;;;;;;38.80;24.58;;;19.50;99.90;;;;;;5046487;28;20032;-79
2022/07/21 02:14:11;;;;;;;33.22;23.08;;;19.50;99.90;;;;;;5039900;28;20065;-79
2022/07/21 02:16:36;;;;;;;34.88;23.63;;;19.50;99.90;;;;;;5043423;28;20485;-79
2022/07/21 02:19:03;;;;;;;35.03;22.77;;;19.30;99.90;;;;;;5046816;28;20021;-79
2022/07/21 02:21:29;;;;;;;33.22;23.38;;;19.30;99.90;;;;;;5042499;28;20401;-79
2022/07/21 02:23:55;;;;;;;34.20;22.88;;;19.50;99.90;;;;;;5053270;28;20025;-79
2022/07/21 02:26:21;;;;;;;30.80;21.52;;;19.30;99.90;;;;;;5032380;28;20025;-79
2022/07/21 02:28:47;;;;;;;32.80;19.80;;;19.30;99.90;;;;;;5034004;28;20033;-80
2022/07/21 02:31:12;;;;;;;30.10;22.00;;;19.30;99.90;;;;;;5044598;28;20021;-80
2022/07/21 02:33:39;;;;;;;32.63;20.10;;;19.30;99.90;;;;;;5035694;28;20165;-80
2022/07/21 02:36:05;;;;;;;28.35;20.95;;;19.30;99.90;;;;;;5033763;28;20046;-79
2022/07/21 02:38:30;;;;;;;28.35;20.38;;;19.40;99.90;;;;;;5047903;28;20020;-80
2022/07/21 02:40:56;;;;;;;29.40;20.30;;;19.30;99.90;;;;;;5033815;28;20480;-80
2022/07/21 02:43:21;;;;;;;28.52;19.77;;;19.40;99.90;;;;;;5047942;28;20025;-79
2022/07/21 02:45:47;;;;;;;28.83;20.42;;;19.30;99.90;;;;;;5042005;28;20649;-80
2022/07/21 02:48:13;;;;;;;30.23;20.33;;;19.30;99.90;;;;;;5048321;28;20017;-80
2022/07/21 02:50:41;;;;;;;26.42;19.52;;;19.40;99.90;;;;;;5047492;28;20350;-80
2022/07/21 02:53:10;;;;;;;31.65;20.30;;;19.40;99.90;;;;;;5046350;28;20505;-80
2022/07/21 02:55:36;;;;;;;28.65;20.15;;;19.30;99.90;;;;;;5048607;28;20029;-80
2022/07/21 02:58:15;;;;;;;31.20;20.48;;;19.20;99.90;;;;;;5033797;28;20022;-79
2022/07/21 03:00:45;;;;;;;31.58;20.67;;;19.30;99.90;;;;;;5047891;28;20053;-80
2022/07/21 03:03:11;;;;;;;;;;;19.40;99.90;;;;;;5034555;28;20060;-80
2022/07/21 03:05:38;;;;;;;31.75;19.95;;;19.30;99.90;;;;;;5050857;28;20254;-80
2022/07/21 03:08:05;;;;;;;30.25;20.50;;;19.20;99.90;;;;;;5022560;28;20061;-79
2022/07/21 03:10:31;;;;;;;29.85;20.50;;;19.20;99.90;;;;;;5013919;28;20030;-80
2022/07/21 03:12:57;;;;;;;30.73;22.13;;;19.20;99.90;;;;;;5014025;28;20029;-80
2022/07/21 03:15:22;;;;;;;34.08;22.05;;;19.20;99.90;;;;;;5013916;28;20026;-80
2022/07/21 03:17:48;;;;;;;31.48;21.80;;;19.20;99.90;;;;;;5021202;28;20022;-80
2022/07/21 03:20:13;;;;;;;30.23;20.88;;;19.20;99.90;;;;;;5033956;28;20036;-80
2022/07/21 03:22:39;;;;;;;33.75;20.60;;;19.20;99.90;;;;;;5034418;28;20065;-80
2022/07/21 03:25:06;;;;;;;32.92;21.83;;;19.20;99.90;;;;;;5034595;28;20386;-80
2022/07/21 03:27:35;;;;;;;36.28;22.27;;;19.20;99.90;;;;;;5050923;28;20110;-80
2022/07/21 03:30:03;;;;;;;30.40;21.57;;;19.30;99.90;;;;;;5053579;28;20064;-80
2022/07/21 03:32:29;;;;;;;33.03;22.25;;;19.20;99.90;;;;;;5050739;28;20105;-79
2022/07/21 03:34:54;;;;;;;30.30;22.02;;;19.30;99.90;;;;;;5028145;28;20163;-80
2022/07/21 03:37:20;;;;;;;32.05;22.27;;;19.20;99.90;;;;;;5047413;28;20033;-79
2022/07/21 03:39:45;;;;;;;33.53;22.38;;;19.30;99.90;;;;;;5039448;28;20028;-79
2022/07/21 03:42:11;;;;;;;32.55;21.98;;;19.30;99.90;;;;;;5042844;28;20496;-79
2022/07/21 03:44:36;;;;;;;32.70;22.13;;;19.30;99.90;;;;;;5037970;28;20464;-79
2022/07/21 03:47:03;;;;;;;30.63;21.33;;;19.40;99.90;;;;;;5045694;28;20627;-79
2022/07/21 03:49:28;;;;;;;31.50;22.17;;;19.30;99.90;;;;;;5046107;28;20020;-78
2022/07/21 03:51:54;;;;;;;32.28;21.90;;;19.30;99.90;;;;;;5038489;28;20021;-78
2022/07/21 03:54:19;;;;;;;30.55;21.38;;;19.30;99.90;;;;;;5052562;28;20024;-78
2022/07/21 03:56:45;;;;;;;31.25;21.77;;;19.30;99.90;;;;;;5052823;28;20043;-79
2022/07/21 03:59:10;;;;;;;34.72;22.15;;;19.40;99.90;;;;;;5053133;28;20035;-78
2022/07/21 04:01:36;;;;;;;30.50;21.33;;;19.30;99.90;;;;;;5052719;28;20029;-79
2022/07/21 04:04:01;;;;;;;32.88;22.15;;;19.30;99.90;;;;;;5052733;28;20025;-78
2022/07/21 04:06:27;;;;;;;30.60;20.42;;;19.30;99.90;;;;;;5053001;28;20024;-78
2022/07/21 04:08:52;;;;;;;23.75;17.85;;;19.30;99.90;;;;;;5053539;28;20029;-79
2022/07/21 04:11:18;;;;;;;26.83;17.27;;;19.20;99.90;;;;;;5052606;28;20078;-78
2022/07/21 04:13:44;;;;;;;22.83;16.35;;;19.20;99.90;;;;;;5052249;28;20070;-78
2022/07/21 04:16:09;;;;;;;24.58;15.43;;;19.10;99.90;;;;;;5052349;28;20025;-78
2022/07/21 04:18:35;;;;;;;23.73;14.85;;;19.10;99.90;;;;;;5052174;28;20098;-78
2022/07/21 04:21:00;;;;;;;17.25;12.55;;;19.10;99.90;;;;;;5052083;28;20111;-78
2022/07/21 04:23:26;;;;;;;20.42;13.90;;;19.00;99.90;;;;;;5051636;28;20021;-78
2022/07/21 04:25:51;;;;;;;19.63;13.15;;;19.00;99.90;;;;;;5052008;28;20036;-78
2022/07/21 04:28:17;;;;;;;22.35;13.23;;;19.00;99.90;;;;;;5050148;28;20032;-78
2022/07/21 04:30:43;;;;;;;27.40;12.88;;;19.00;99.90;;;;;;5032156;28;20558;-78
2022/07/21 04:33:08;;;;;;;19.40;12.57;;;19.00;99.90;;;;;;5042765;28;20619;-78
2022/07/21 04:35:35;;;;;;;18.73;12.10;;;19.00;99.90;;;;;;5031773;28;20056;-77
2022/07/21 04:38:00;;;;;;;21.67;12.50;;;19.00;99.90;;;;;;5032440;28;20353;-77
2022/07/21 04:40:26;;;;;;;17.08;11.65;;;19.00;99.90;;;;;;5032261;28;20457;-77
2022/07/21 04:42:52;;;;;;;21.67;11.93;;;19.10;99.90;;;;;;5031619;28;20034;-77
2022/07/21 04:45:17;;;;;;;17.63;11.80;;;19.10;99.90;;;;;;5031635;28;20021;-77
2022/07/21 04:47:48;;;;;;;17.20;11.70;;;19.20;99.90;;;;;;5031778;28;20014;-76
2022/07/21 04:50:14;;;;;;;19.73;11.82;;;19.10;99.90;;;;;;5031845;28;20025;-76
2022/07/21 04:52:40;;;;;;;19.63;12.15;;;19.20;99.90;;;;;;5040763;28;20539;-76
2022/07/21 04:55:07;;;;;;;16.08;11.73;;;19.30;99.90;;;;;;5041131;28;20029;-76
2022/07/21 04:57:39;;;;;;;24.30;12.32;;;19.20;99.90;;;;;;5048004;28;20017;-76
2022/07/21 05:00:07;;;;;;;20.40;12.43;;;19.30;99.90;;;;;;5049659;28;20500;-75
2022/07/21 05:02:32;;;;;;;18.65;12.20;;;19.40;99.90;;;;;;5048707;28;20053;-76
2022/07/21 05:04:58;;;;;;;18.75;12.50;;;19.30;99.90;;;;;;5047385;28;20059;-76
2022/07/21 05:07:23;;;;;;;19.88;11.80;;;19.50;99.90;;;;;;5050718;28;20022;-76
2022/07/21 05:09:49;;;;;;;22.08;12.68;;;19.50;99.90;;;;;;5045062;28;20021;-76
2022/07/21 05:12:14;;;;;;;16.95;11.40;;;19.70;99.90;;;;;;5053291;28;20120;-76
2022/07/21 05:14:40;;;;;;;16.23;10.98;;;19.70;99.90;;;;;;5053564;28;20128;-76
2022/07/21 05:17:12;;;;;;;18.23;10.88;;;19.80;99.90;;;;;;5054918;28;20131;-76
2022/07/21 05:19:38;;;;;;;15.95;10.90;;;19.80;99.90;;;;;;5040621;28;20092;-76
2022/07/21 05:22:03;;;;;;;18.50;11.88;;;19.90;99.90;;;;;;5054687;28;20381;-76
2022/07/21 05:24:29;;;;;;;16.75;11.93;;;19.90;99.90;;;;;;5054780;28;20616;-76
2022/07/21 05:26:54;;;;;;;17.63;11.88;;;20.00;99.90;;;;;;5054664;28;20086;-75
2022/07/21 05:29:20;;;;;;;20.35;11.65;;;20.10;99.90;;;;;;5054577;28;20414;-76
2022/07/21 05:31:45;;;;;;;16.90;11.80;;;20.20;99.90;;;;;;5040916;28;20033;-77
2022/07/21 05:34:11;;;;;;;21.23;11.90;;;20.10;99.90;;;;;;5055452;28;20025;-77
2022/07/21 05:36:36;;;;;;;15.15;11.40;;;20.20;99.90;;;;;;5056000;28;20045;-76
2022/07/21 05:39:03;;;;;;;16.35;11.38;;;20.30;99.90;;;;;;5043315;28;20362;-76
2022/07/21 05:41:28;;;;;;;20.67;11.77;;;20.30;99.90;;;;;;5034301;28;20052;-76
2022/07/21 05:43:54;;;;;;;21.02;12.25;;;20.70;99.90;;;;;;5034243;28;20449;-76
2022/07/21 05:46:19;;;;;;;17.27;12.13;;;20.80;99.90;;;;;;5034420;28;20033;-76
2022/07/21 05:48:45;;;;;;;18.58;11.65;;;21.00;99.90;;;;;;5034201;28;20560;-76
2022/07/21 05:51:11;;;;;;;21.75;11.90;;;21.10;99.60;;;;;;5034324;28;20583;-76
2022/07/21 05:53:37;;;;;;;17.70;11.90;;;21.10;96.30;;;;;;5033955;28;20017;-76
2022/07/21 05:56:02;;;;;;;17.52;12.00;;;21.20;99.90;;;;;;5034103;28;20041;-77
2022/07/21 05:58:28;;;;;;;16.98;12.10;;;21.20;99.90;;;;;;5034924;28;20028;-77
2022/07/21 06:01:11;;;;;;;16.95;12.13;;;21.00;99.90;;;;;;5044147;28;20030;-77
2022/07/21 06:03:39;;;;;;;18.20;12.50;;;21.10;99.90;;;;;;5048283;28;20107;-77
2022/07/21 06:06:05;;;;;;;19.88;13.18;;;21.10;99.90;;;;;;5052594;28;20033;-77
2022/07/21 06:08:30;;;;;;;19.73;13.07;;;21.20;99.90;;;;;;5053880;28;20021;-77
2022/07/21 06:10:56;;;;;;;18.15;12.20;;;21.30;99.90;;;;;;5053799;28;20461;-77
2022/07/21 06:13:22;;;;;;;21.40;13.70;;;21.30;99.90;;;;;;5053391;28;20523;-78
2022/07/21 06:15:47;;;;;;;15.57;12.88;;;21.40;99.90;;;;;;5051006;28;20078;-77
2022/07/21 06:18:20;;;;;;;21.33;13.70;;;21.50;99.90;;;;;;5053338;28;20045;-77
2022/07/21 06:20:45;;;;;;;21.42;14.48;;;21.60;99.10;;;;;;5053450;28;20033;-77
2022/07/21 06:23:11;;;;;;;21.48;14.43;;;21.50;90.80;;;;;;5053700;28;20443;-77
2022/07/21 06:25:37;;;;;;;21.20;14.05;;;21.70;85.80;;;;;;5039434;28;20053;-77
2022/07/21 06:28:03;;;;;;;18.45;13.93;;;21.70;70.90;;;;;;5041665;28;20104;-77
2022/07/21 06:30:28;;;;;;;26.45;14.52;;;21.80;53.00;;;;;;5033291;28;20080;-77
2022/07/21 06:32:54;;;;;;;20.27;14.27;;;21.70;21.70;;;;;;5022679;28;20376;-77
2022/07/21 06:35:20;;;;;;;21.70;14.27;;;22.00;52.20;;;;;;5028102;28;20021;-77
2022/07/21 06:37:46;;;;;;;22.55;14.60;;;22.20;37.80;;;;;;5033925;28;20018;-77
2022/07/21 06:40:12;;;;;;;22.88;15.55;;;22.20;38.30;;;;;;5031737;28;20108;-78
2022/07/21 06:42:38;;;;;;;20.55;15.57;;;22.10;1.00;;;;;;5021643;28;20142;-77
2022/07/21 06:45:04;;;;;;;21.50;15.80;;;22.40;9.60;;;;;;5036352;28;20112;-77
2022/07/21 06:47:30;;;;;;;23.05;16.60;;;22.30;1.70;;;;;;5051637;28;20131;-77
2022/07/21 06:49:57;;;;;;;24.92;17.92;;;22.50;3.90;;;;;;5046643;28;20433;-77
2022/07/21 06:52:23;;;;;;;23.48;17.48;;;22.80;1.00;;;;;;5043091;28;20021;-78
2022/07/21 06:54:48;;;;;;;26.48;18.63;;;22.70;1.00;;;;;;5031995;28;20350;-77
2022/07/21 06:57:14;;;;;;;25.40;18.00;;;22.90;1.00;;;;;;5018858;28;20458;-77
2022/07/21 06:59:40;;;;;;;22.83;17.88;;;23.10;1.00;;;;;;5032805;28;20053;-77
2022/07/21 07:02:12;;;;;;;24.98;18.05;;;22.90;1.00;;;;;;5041624;28;20029;-77
2022/07/21 07:04:37;;;;;;;28.35;19.52;;;22.90;1.00;;;;;;5032891;28;20025;-77
2022/07/21 07:07:03;;;;;;;25.92;19.08;;;22.50;1.00;;;;;;5042272;28;20036;-77
2022/07/21 07:09:29;;;;;;;31.17;20.70;;;22.30;1.00;;;;;;5040544;28;20416;-77
2022/07/21 07:12:03;;;;;;;30.98;21.52;;;22.30;1.00;;;;;;5032735;28;20033;-77
2022/07/21 07:14:29;;;;;;;28.88;20.15;;;22.20;1.00;;;;;;5046246;28;20036;-77
2022/07/21 07:16:55;;;;;;;27.35;21.75;;;22.00;14.70;;;;;;5030785;28;20021;-77
2022/07/21 07:19:20;;;;;;;30.15;22.30;;;21.90;22.40;;;;;;5034813;28;20373;-77
2022/07/21 07:21:53;;;;;;;33.40;23.52;;;22.00;1.00;;;;;;5033958;28;20457;-77
2022/07/21 07:24:19;;;;;;;31.70;23.20;;;21.90;1.00;;;;;;5031440;28;20033;-77
2022/07/21 07:26:44;;;;;;;31.88;23.58;;;22.00;1.00;;;;;;5046894;28;20028;-78
2022/07/21 07:29:10;;;;;;;33.83;24.00;;;22.10;1.00;;;;;;5032772;28;20009;-77
2022/07/21 07:31:36;;;;;;;33.90;24.42;;;22.00;1.00;;;;;;5032446;28;20036;-77
2022/07/21 07:34:02;;;;;;;37.67;25.65;;;22.10;1.00;;;;;;5023523;28;20018;-78
2022/07/21 07:36:28;;;;;;;33.15;25.58;;;22.00;1.00;;;;;;5024651;28;20049;-78
2022/07/21 07:38:55;;;;;;;39.75;24.88;;;21.90;1.00;;;;;;5012358;28;20033;-77
2022/07/21 07:41:23;;;;;;;33.60;21.88;;;22.10;1.00;;;;;;5012472;28;20053;-76
2022/07/21 07:43:49;;;;;;;34.65;26.25;;;21.90;1.00;;;;;;5012532;28;20030;-76
2022/07/21 07:46:16;;;;;;;36.97;26.25;;;21.70;2.20;;;;;;5012218;28;20374;-77
2022/07/21 07:48:42;;;;;;;38.97;27.42;;;21.50;10.00;;;;;;5012450;28;20069;-76
2022/07/21 07:51:09;;;;;;;39.08;28.55;;;21.60;7.50;;;;;;5016124;28;20029;-78
2022/07/21 07:53:35;;;;;;;38.13;28.52;;;21.40;11.80;;;;;;5046037;28;20651;-77
2022/07/21 07:56:01;;;;;;;36.13;28.10;;;21.40;12.30;;;;;;5037192;28;20553;-77
2022/07/21 07:58:27;;;;;;;37.50;27.25;;;21.40;20.40;;;;;;5032201;28;20679;-77
2022/07/21 08:00:53;;;;;;;42.22;30.67;;;21.50;15.80;;;;;;5039317;28;20045;-78
2022/07/21 08:03:20;;;;;;;43.70;30.20;;;21.60;9.50;;;;;;5043295;28;20027;-78
2022/07/21 08:05:46;;;;;;;41.95;29.27;;;21.60;12.10;;;;;;5038143;28;20087;-78
2022/07/21 08:08:13;;;;;;;45.85;28.85;;;21.60;1.00;;;;;;5043063;28;20025;-77
2022/07/21 08:10:39;;;;;;;38.10;27.85;;;21.60;4.20;;;;;;5033315;28;20029;-78
2022/07/21 08:13:04;;;;;;;36.15;27.48;;;21.50;10.00;;;;;;5049277;28;20100;-78
2022/07/21 08:15:30;;;;;;;36.80;27.88;;;21.40;14.80;;;;;;5039044;28;20030;-78
2022/07/21 08:17:56;;;;;;;38.78;27.23;;;21.20;13.00;;;;;;5046019;28;20018;-77
2022/07/21 08:20:21;;;;;;;37.65;26.80;;;21.30;9.30;;;;;;5042879;28;20021;-77
2022/07/21 08:22:47;;;;;;;38.50;27.10;;;21.40;14.70;;;;;;5037611;28;20057;-77
2022/07/21 08:25:12;;;;;;;36.65;27.63;;;21.60;1.00;;;;;;5043159;28;20021;-77
2022/07/21 08:27:39;;;;;;;37.80;27.10;;;21.60;1.80;;;;;;5032609;28;20030;-78
2022/07/21 08:30:05;;;;;;;32.95;25.50;;;21.80;1.00;;;;;;5049831;28;20067;-77
2022/07/21 08:32:31;;;;;;;36.67;25.08;;;21.90;1.00;;;;;;5049758;28;20032;-77
2022/07/21 08:34:56;;;;;;;31.38;21.77;;;22.00;1.00;;;;;;5051936;28;20018;-77
2022/07/21 08:37:22;;;;;;;26.88;20.10;;;22.10;1.00;;;;;;5042802;28;20064;-78
2022/07/21 08:39:48;;;;;;;27.88;19.95;;;21.90;1.00;;;;;;5040492;28;20018;-77
2022/07/21 08:42:15;;;;;;;25.90;19.42;;;22.20;1.00;;;;;;5029787;28;20030;-77
2022/07/21 08:44:40;;;;;;;25.40;19.05;;;22.40;1.00;;;;;;5044934;28;20017;-77
2022/07/21 08:47:06;;;;;;;23.50;18.30;;;22.60;1.00;;;;;;5049073;28;20021;-77
2022/07/21 08:49:34;;;;;;;28.20;19.17;;;22.60;1.00;;;;;;5048017;28;20025;-77
2022/07/21 08:52:00;;;;;;;24.63;18.48;;;22.80;1.00;;;;;;5041394;28;20088;-77
2022/07/21 08:54:26;;;;;;;22.65;17.48;;;22.90;1.00;;;;;;5045132;28;20171;-76
2022/07/21 08:56:52;;;;;;;25.33;18.45;;;23.00;1.00;;;;;;5035270;28;20342;-77
2022/07/21 08:59:17;;;;;;;21.10;17.13;;;23.10;1.00;;;;;;5047473;28;20032;-77
2022/07/21 09:01:43;;;;;;;23.38;18.70;;;23.40;1.00;;;;;;5051084;28;20020;-77
2022/07/21 09:04:30;;;;;;;21.80;17.00;;;23.60;1.00;;;;;;5035475;28;20021;-77
2022/07/21 09:07:01;;;;;;;23.77;18.35;;;23.70;1.00;;;;;;5038737;28;20026;-77
2022/07/21 09:09:29;;;;;;;22.92;18.27;;;23.70;1.00;;;;;;5035551;28;20018;-77
2022/07/21 09:11:56;;;;;;;21.13;15.70;;;23.60;1.00;;;;;;5035231;28;20346;-76
2022/07/21 09:14:33;;;;;;;21.67;16.00;;;23.50;1.00;;;;;;5035654;28;20101;-81
2022/07/21 09:17:01;;;;;;;18.88;15.93;;;23.50;1.00;;;;;;5035342;28;20412;-76
2022/07/21 09:19:27;;;;;;;22.52;17.30;;;23.70;1.00;;;;;;5034923;28;20025;-76
2022/07/21 09:21:56;;;;;;;19.95;16.00;;;23.60;1.00;;;;;;5035179;28;20034;-75
2022/07/21 09:24:37;;;;;;;18.67;16.08;;;23.60;1.00;;;;;;5033493;28;20032;-76
2022/07/21 09:27:06;;;;;;;17.13;14.48;;;23.60;1.00;;;;;;5035186;28;20021;-75
2022/07/21 09:29:59;;;;;;;17.27;14.77;;;23.80;1.00;;;;;;5034705;28;20136;-76
2022/07/21 09:32:30;;;;;;;15.85;13.15;;;23.50;1.00;;;;;;5027758;28;20105;-76
2022/07/21 09:35:13;;;;;;;11.95;10.38;;;23.20;1.00;;;;;;5014712;28;20545;-76
2022/07/21 09:37:41;;;;;;;14.07;11.00;;;23.10;1.00;;;;;;5013611;28;20053;-76
2022/07/21 09:40:12;;;;;;;11.70;10.50;;;22.70;1.00;;;;;;5013383;28;20036;-76
2022/07/21 09:42:43;;;;;;;13.27;10.85;;;23.00;1.00;;;;;;5014795;28;20034;-76
2022/07/21 09:45:13;;;;;;;13.50;10.50;;;23.10;1.00;;;;;;5041735;28;20029;-76
2022/07/21 09:47:40;;;;;;;14.48;11.90;;;23.00;1.00;;;;;;5041008;28;20047;-76
2022/07/21 09:50:08;;;;;;;11.93;10.50;;;22.80;1.00;;;;;;5034200;28;20059;-76
2022/07/21 09:52:38;;;;;;;12.65;11.35;;;22.70;1.00;;;;;;5038669;28;20036;-75
2022/07/21 09:55:07;;;;;;;13.25;11.27;;;22.50;1.00;;;;;;5043622;28;20030;-76
2022/07/21 09:57:33;;;;;;;11.75;9.30;;;22.40;1.00;;;;;;5041791;28;20049;-76
2022/07/21 09:59:59;;;;;;;10.65;9.45;;;22.60;1.00;;;;;;5034452;28;20122;-76
2022/07/21 10:02:31;;;;;;;11.02;9.77;;;22.70;1.00;;;;;;5038735;28;20111;-76
2022/07/21 10:05:07;;;;;;;11.73;9.70;;;22.70;1.00;;;;;;5034370;28;20404;-77
2022/07/21 10:07:35;;;;;;;10.60;9.60;;;22.80;1.00;;;;;;5053881;28;20028;-77
2022/07/21 10:10:01;;;;;;;10.20;9.20;;;22.80;1.00;;;;;;5038548;28;20052;-77
2022/07/21 10:12:27;;;;;;;10.55;9.20;;;22.80;1.00;;;;;;5034116;28;20103;-76
2022/07/21 10:14:54;;;;;;;9.85;8.88;;;22.80;1.00;;;;;;5033846;28;20338;-76
2022/07/21 10:17:21;;;;;;;10.52;8.75;;;22.80;1.00;;;;;;5033883;28;20037;-76
2022/07/21 10:20:25;;;;;;;9.73;8.50;;;22.80;1.00;;;;;;5033687;28;20022;-76
2022/07/21 10:22:57;;;;;;;10.50;9.35;;;22.80;1.00;;;;;;5043323;28;20037;-76
2022/07/21 10:25:23;;;;;;;11.48;9.68;;;22.90;1.00;;;;;;5047370;28;20052;-76
2022/07/21 10:28:10;;;;;;;10.60;9.45;;;22.80;1.00;;;;;;5038275;28;20078;-76
2022/07/21 10:30:45;;;;;;;9.63;8.43;;;22.90;1.00;;;;;;5043766;28;20096;-76
2022/07/21 10:33:14;;;;;;;10.68;9.30;;;23.00;1.00;;;;;;5053313;28;20025;-76
2022/07/21 10:35:44;;;;;;;10.80;9.10;;;22.90;1.00;;;;;;5052000;28;20017;-78
2022/07/21 10:38:30;;;;;;;10.02;9.10;;;23.10;1.00;;;;;;5053467;28;20109;-76
2022/07/21 10:40:58;;;;;;;10.43;9.43;;;23.60;99.90;;;;;;5053244;28;20104;-77
2022/07/21 10:43:30;;;;;;;13.45;10.02;;;23.70;99.90;;;;;;5044313;28;20029;-77
2022/07/21 10:45:57;;;;;;;9.65;8.68;;;23.50;99.90;;;;;;5032870;28;20113;-76
2022/07/21 10:48:41;;;;;;;10.23;9.07;;;23.60;99.90;;;;;;5030097;28;20446;-76
2022/07/21 10:51:09;;;;;;;13.18;9.65;;;23.40;99.90;;;;;;5028809;28;20033;-77
2022/07/21 10:53:35;;;;;;;12.77;10.85;;;23.10;99.90;;;;;;5027712;28;20037;-75
2022/07/21 10:56:01;;;;;;;14.05;10.25;;;23.10;99.90;;;;;;5013537;28;20458;-76
2022/07/21 10:58:28;;;;;;;11.50;9.38;;;23.10;99.90;;;;;;5037634;28;20021;-76
2022/07/21 11:01:03;;;;;;;11.05;9.05;;;23.00;99.90;;;;;;5048413;28;20063;-75
2022/07/21 11:03:31;;;;;;;10.23;9.13;;;22.90;99.90;;;;;;5053269;28;20053;-75
2022/07/21 11:06:24;;;;;;;10.80;9.30;;;22.80;99.90;;;;;;5053004;28;20028;-75
2022/07/21 11:09:14;;;;;;;10.95;9.10;;;22.80;99.90;;;;;;5034032;28;20040;-75
2022/07/21 11:11:49;;;;;;;11.27;9.73;;;22.90;99.90;;;;;;5046881;28;20013;-74
2022/07/21 11:14:20;;;;;;;10.88;9.07;;;23.00;99.90;;;;;;5042312;28;20472;-76
2022/07/21 11:16:59;;;;;;;12.48;9.70;;;23.00;99.90;;;;;;5038550;28;20024;-76
2022/07/21 11:19:29;;;;;;;10.95;9.27;;;22.80;99.90;;;;;;5042420;28;20053;-76
2022/07/21 11:21:58;;;;;;;12.50;9.95;;;22.30;1.00;;;;;;5049103;28;20427;-76
2022/07/21 11:24:24;;;;;;;10.77;9.15;;;22.40;1.00;;;;;;5043514;28;20357;-76
2022/07/21 11:26:55;;;;;;;13.10;9.65;;;22.20;1.00;;;;;;5046442;28;20384;-76
2022/07/21 11:29:20;;;;;;;11.45;8.93;;;22.30;1.00;;;;;;5037389;28;20074;-76
2022/07/21 11:31:47;;;;;;;10.27;8.60;;;22.30;1.00;;;;;;5036267;28;20016;-76
2022/07/21 11:34:13;;;;;;;10.23;9.02;;;22.20;1.00;;;;;;5041161;28;20112;-75
2022/07/21 11:36:39;;;;;;;13.25;9.45;;;22.20;1.00;;;;;;5045481;28;20441;-75
2022/07/21 11:39:12;;;;;;;11.10;8.68;;;22.00;1.00;;;;;;5032814;28;20021;-75
2022/07/21 11:41:40;;;;;;;12.38;8.98;;;21.70;1.00;;;;;;5022426;28;20040;-75
2022/07/21 11:44:08;;;;;;;10.20;9.02;;;21.70;1.00;;;;;;5041446;28;20017;-76
2022/07/21 11:46:48;;;;;;;11.65;8.57;;;21.70;1.00;;;;;;5035279;28;20033;-76
2022/07/21 11:49:15;;;;;;;10.00;8.77;;;21.90;1.00;;;;;;5034445;28;20060;-76
2022/07/21 11:52:17;;;;;;;10.65;9.25;;;21.90;1.00;;;;;;5043957;28;20030;-76
2022/07/21 11:54:48;;;;;;;9.68;8.70;;;21.90;1.00;;;;;;5046218;28;20052;-76
2022/07/21 11:57:16;;;;;;;11.13;8.13;;;21.70;1.00;;;;;;5032163;28;20137;-75
2022/07/21 11:59:42;;;;;;;10.02;8.98;;;21.80;1.00;;;;;;5050292;28;20032;-75
2022/07/21 12:02:18;;;;;;;9.68;8.00;;;22.00;1.00;;;;;;5049607;28;20045;-75
2022/07/21 12:04:50;;;;;;;10.55;9.30;;;22.00;1.00;;;;;;5051887;28;20021;-76
2022/07/21 12:07:20;;;;;;;10.93;9.50;;;21.80;1.00;;;;;;5046672;28;20021;-76
2022/07/21 12:09:50;;;;;;;10.57;8.10;;;21.60;1.00;;;;;;5042263;28;20032;-76
2022/07/21 12:12:28;;;;;;;13.30;8.73;;;21.70;1.00;;;;;;5044911;28;20419;-76
2022/07/21 12:14:53;;;;;;;10.20;8.40;;;21.70;1.00;;;;;;5038807;28;20121;-74
2022/07/21 12:17:37;;;;;;;12.18;9.32;;;21.60;1.00;;;;;;5045906;28;20446;-73
2022/07/21 12:20:05;;;;;;;10.48;9.35;;;21.50;1.00;;;;;;5051031;28;20013;-73
2022/07/21 12:22:46;;;;;;;10.68;9.55;;;21.80;1.00;;;;;;5035588;28;20029;-73
2022/07/21 12:25:14;;;;;;;11.52;9.45;;;22.10;1.00;;;;;;5035852;28;20458;-74
2022/07/21 12:27:43;;;;;;;12.68;9.35;;;21.90;1.00;;;;;;5020510;28;20075;-73
2022/07/21 12:30:28;;;;;;;12.13;9.27;;;22.10;1.00;;;;;;5049372;28;20079;-74
2022/07/21 12:32:54;;;;;;;10.52;9.38;;;22.30;1.00;;;;;;5029754;28;20034;-74
2022/07/21 12:35:22;;;;;;;9.35;8.05;;;22.50;1.00;;;;;;5035003;28;20025;-74
2022/07/21 12:38:12;;;;;;;8.98;7.72;;;22.50;1.00;;;;;;5035174;28;20053;-74
2022/07/21 12:40:43;;;;;;;10.10;8.23;;;22.60;1.00;;;;;;5037082;28;20044;-74